TimeCDT,TemperatureF,Dew PointF,Humidity,Sea Level PressureIn,VisibilityMPH,Wind Direction,Wind SpeedMPH,Gust SpeedMPH,PrecipitationIn,Events,Conditions,WindDirDegrees,DateUTC
12:50 AM,44.6,41.0,87,29.74,5.0,NE,12.7,-,0.00,,Overcast,40,2013-03-24 05:50:00
12:53 AM,44.1,41.0,89,29.74,5.0,NE,12.7,-,0.00,,Overcast,40,2013-03-24 05:53:00
1:53 AM,44.1,41.0,89,29.73,4.0,NE,11.5,-,N/A,,Overcast,40,2013-03-24 06:53:00
2:20 AM,44.6,41.0,87,29.71,4.0,NE,11.5,-,N/A,,Overcast,40,2013-03-24 07:20:00
2:53 AM,43.0,41.0,93,29.69,5.0,NE,11.5,-,N/A,,Overcast,40,2013-03-24 07:53:00
3:53 AM,43.0,41.0,93,29.68,6.0,NNE,9.2,-,N/A,,Overcast,30,2013-03-24 08:53:00
4:26 AM,42.8,39.2,87,29.67,2.5,North,10.4,-,0.00,Rain,Light Rain,10,2013-03-24 09:26:00
4:51 AM,42.8,39.2,87,29.67,3.0,NNE,11.5,-,0.00,,Overcast,30,2013-03-24 09:51:00
4:53 AM,42.1,39.9,92,29.67,2.5,NNE,12.7,-,0.00,,Overcast,30,2013-03-24 09:53:00
5:11 AM,41.0,39.2,93,29.67,3.0,NNE,13.8,-,N/A,,Overcast,30,2013-03-24 10:11:00
5:48 AM,39.2,37.4,93,29.67,5.0,NE,15.0,23.0,N/A,,Overcast,40,2013-03-24 10:48:00
5:53 AM,39.9,37.0,89,29.67,5.0,NE,13.8,23.0,N/A,,Overcast,40,2013-03-24 10:53:00
6:53 AM,39.9,37.0,89,29.63,7.0,ENE,11.5,-,N/A,,Overcast,70,2013-03-24 11:53:00
7:53 AM,39.9,37.0,89,29.59,8.0,ENE,16.1,-,N/A,,Overcast,70,2013-03-24 12:53:00
8:53 AM,39.9,37.0,89,29.52,6.0,East,16.1,-,N/A,,Overcast,90,2013-03-24 13:53:00
9:53 AM,39.9,37.9,93,29.54,6.0,WNW,6.9,-,0.00,Rain,Light Rain,300,2013-03-24 14:53:00
10:06 AM,39.2,37.4,93,29.53,2.5,North,3.5,-,0.03,Rain,Light Rain,360,2013-03-24 15:06:00
10:13 AM,41.0,37.4,87,29.51,5.0,NE,4.6,-,0.03,Rain,Light Rain,50,2013-03-24 15:13:00
10:21 AM,41.0,37.4,87,29.52,3.0,Calm,Calm,-,0.03,Rain,Light Rain,0,2013-03-24 15:21:00
10:44 AM,39.2,37.4,93,29.51,3.0,NW,5.8,-,0.03,Rain,Light Rain,310,2013-03-24 15:44:00
10:53 AM,39.9,37.9,93,29.53,4.0,West,5.8,-,0.03,Rain,Light Rain,280,2013-03-24 15:53:00
11:04 AM,39.2,37.4,93,29.54,2.5,West,9.2,-,0.00,Rain,Light Rain,270,2013-03-24 16:04:00
11:17 AM,39.2,37.4,93,29.54,1.8,West,9.2,-,0.03,Rain,Rain,280,2013-03-24 16:17:00
11:24 AM,39.2,37.4,93,29.53,2.0,WNW,10.4,-,0.04,Rain,Rain,300,2013-03-24 16:24:00
11:36 AM,39.2,37.4,93,29.52,3.0,WNW,12.7,-,0.04,Rain,Light Rain,300,2013-03-24 16:36:00
11:53 AM,41.0,37.9,89,29.49,5.0,North,11.5,-,0.04,,Overcast,360,2013-03-24 16:53:00
12:11 PM,39.2,37.4,93,29.52,8.0,NW,12.7,-,N/A,,Overcast,310,2013-03-24 17:11:00
12:53 PM,37.9,35.1,89,29.52,10.0,NW,11.5,-,N/A,,Overcast,320,2013-03-24 17:53:00
1:34 PM,37.4,35.6,93,29.52,7.0,NW,9.2,-,N/A,,Overcast,320,2013-03-24 18:34:00
1:53 PM,39.0,36.0,89,29.52,7.0,NNW,11.5,-,0.00,,Overcast,340,2013-03-24 18:53:00
2:53 PM,37.0,34.0,89,29.54,6.0,NW,16.1,20.7,0.00,Rain,Light Rain,320,2013-03-24 19:53:00
3:53 PM,37.9,34.0,86,29.56,10.0,WNW,19.6,24.2,0.00,,Overcast,300,2013-03-24 20:53:00
4:53 PM,37.0,30.9,79,29.59,10.0,WNW,21.9,28.8,0.00,,Overcast,300,2013-03-24 21:53:00
5:23 PM,37.4,30.2,75,29.60,10.0,WNW,24.2,33.4,N/A,,Overcast,290,2013-03-24 22:23:00
5:30 PM,37.4,30.2,75,29.61,10.0,WNW,24.2,33.4,N/A,,Overcast,300,2013-03-24 22:30:00
5:53 PM,36.0,30.0,79,29.63,6.0,NW,23.0,34.5,N/A,,Haze,310,2013-03-24 22:53:00
6:53 PM,35.1,28.0,76,29.68,10.0,WNW,24.2,33.4,0.00,,Overcast,300,2013-03-24 23:53:00
7:15 PM,35.6,28.4,75,29.69,10.0,WNW,24.2,32.2,N/A,,Overcast,300,2013-03-25 00:15:00
7:31 PM,35.6,28.4,75,29.70,10.0,WNW,20.7,28.8,N/A,,Overcast,290,2013-03-25 00:31:00
7:53 PM,35.1,28.0,76,29.73,10.0,WNW,21.9,29.9,N/A,,Overcast,300,2013-03-25 00:53:00
8:39 PM,33.8,28.4,81,29.74,10.0,WNW,19.6,32.2,N/A,,Overcast,300,2013-03-25 01:39:00
8:53 PM,34.0,28.0,79,29.76,10.0,WNW,20.7,28.8,N/A,,Overcast,300,2013-03-25 01:53:00
9:53 PM,34.0,27.0,75,29.79,10.0,WNW,20.7,28.8,N/A,,Overcast,290,2013-03-25 02:53:00
10:53 PM,33.1,27.0,78,29.82,9.0,WNW,19.6,28.8,0.00,Snow,Light Snow,300,2013-03-25 03:53:00
11:53 PM,33.1,27.0,78,29.83,10.0,WNW,19.6,25.3,0.00,,Overcast,290,2013-03-25 04:53:00